Relevés horaires Bierset (Belgique)


Relevés horaires à Bierset - Jeudi 06 Févr. 2020
Heure UTC1 Température [°C] Vent [km/h] Hum. [%] Pres.4 [hPa] Visi. [Km] Nébu. [octa] Préc.5 [mm] Cond.
2m. Res. Ros. Dir.2 Vit. Moy. Raf.3
23:00 0.8 0.8 -0.6 NNO 3.7 3.7 14.8 90 1030.8(-0.3/3h) 7 0/8 -- --
22:00 1.7 1.7 -0.4 ESE 3.7 3.7 11.1 86 1030.8(-0.8/3h) 9 0/8 -- --
21:00 2.7 2.7 -0.1 E 3.7 5.6 13.0 82 1030.9(-0.8/3h) 12 0/8 -- --
20:00 3.1 3.1 -0.4 ESE 3.7 3.7 5.6 78 1031(-1.0/3h) 14 0/8 -- --
19:00 3.1 3.1 0.1 E 3.7 5.6 13.0 81 1031.5(-0.4/3h) 14 0/8 -- --
18:00 3.4 3.4 0.3 ENE 3.7 5.6 7.4 80 1031.7(-0.5/3h) 14 0/8 0/12h
--
17:00 3.0 1.6 0.2 NE 5.6 5.6 7.4 82 1031.9(-0.5/3h) 14 1/8 -- --
16:00 5.3 5.3 0.6 ENE 3.7 5.6 7.4 72 1031.7(-0.9/3h) 20 1/8 -- --
15:00 6.1 6.1 1.2 N 1.9 5.6 7.4 71 1032(-1.2/3h) 20 2/8 -- --
14:00 6.0 6.0 1.0 NNO 1.9 3.7 5.6 70 1032.2(-1.2/3h) 20 2/8 -- --
13:00 6.3 6.3 1.4 SSE 1.9 1.9 3.7 71 1032.6(-1.0/3h) 20 2/8 -- --
12:00 5.4 5.4 0.8 NNO 0.0 5.6 13.0 72 1033.3(-0.5/3h) 10 5/8 0/6h
--
11:00 4.2 4.2 0.9 S 3.7 3.7 9.3 79 1033.6(0.2/3h) 10 3/8 -- --
10:00 2.0 2.0 0.4 SSE 3.7 5.6 7.4 89 1034(0.4/3h) 10 6/8 -- --
09:00 1.1 -0.6 -0.6 SSE 5.6 5.6 13.0 88 1034.1(-0.1/3h) 9 7/8 -- --
08:00 0.8 0.8 -0.6 SSE 3.7 5.6 9.3 90 1034(-0.5/3h) 6 1/8 -- --
07:00 0.9 0.9 -0.6 S 3.7 5.6 9.3 90 1033.7(-1.0/3h) 6 1/8 -- --
06:00 0.6 0.6 -0.7 SSO 3.7 5.6 11.1 91 1034.1(-0.9/3h) 7 2/8 0/12h
--
05:00 1.5 1.5 -- S 3.7 5.6 7.4 -- 1034.5(-0.9/3h) 13 5/8 -- --
04:00 2.4 2.4 0.2 S 3.7 5.6 11.1 85 1034.6(-1.0/3h) 13 7/8 -- --
03:00 2.1 2.1 0.1 S 3.7 5.6 11.1 87 1035(-1.4/3h) 13 7/8 -- --
02:00 1.9 1.9 0.1 SSE 3.7 5.6 7.4 88 1035.4(-1.4/3h) 15 7/8 -- --
01:00 2.2 2.2 0.2 SSE 3.7 5.6 7.4 87 1035.6(-1.3/3h) 12 7/8 -- --
00:00 2.5 1 0.5 SO 5.6 5.6 14.8 87 1036.3(-0.6/3h) 20 7/8 0/6h
0/24h
--

1 Coordinated Universal Time. Actuellement il est 23:00 locale et 21:00 UTC.

2 Le vent souffle depuis la direction indiquée vers la direction oposée.

3 Les rafales max. sont disponible 40 min après l'heure du relevé.

4 Pour les stations d'altitude (plus de 600m) le géopotentiel du niveau le plus proche de la pression obligatoire est indiqué.

5 Les stations disposant d'un diffuseur peuvent indiquer "trace". Cela signifie que des précipitations ont touchés le sol mais que la quantité est inférieure à 0.1 mm.

Récapitulatif de la journée
Température [°C] Vent [km/h] Ensoleillement4 [h] Precipitations totale5 [mm] Pression [Hpa]
Min1 Max.2 Moy.3 Max. Min Max.
0.6 6.9 5.1 14.8 0 h 0 min 0 1030.8 1036.3

1 Température minimale relevée entre 18:00 UTC la veille et 18:00 UTC le jour donné.

2 Température maximale relevée entre 06:00 UTC le jour donné et 06:00 UTC le lendemain.

3 Vent moyen de la journée basé sur les relevés horaires.

4 Ensoleillement en heures relevé entre 06:00 UTC la veille et 06:00 UTC le jour donné.

5 Précipitations totales tombées entre 06:00 UTC la jour donné et 06:00 UTC le lendemain.

Graphiques horaires